createdAt,value
2023-03-15T00:04:46.667Z,1.35
2023-03-15T00:09:50.718Z,1.53
2023-03-15T00:14:53.649Z,1.51
2023-03-15T00:19:56.368Z,1.50
2023-03-15T00:25:00.439Z,1.56
2023-03-15T00:30:03.149Z,1.56
2023-03-15T00:35:08.864Z,1.59
2023-03-15T00:40:14.293Z,1.70
2023-03-15T00:45:17.862Z,1.81
2023-03-15T00:50:23.083Z,1.85
2023-03-15T00:55:27.143Z,1.98
2023-03-15T01:00:29.946Z,2.02
2023-03-15T01:05:32.654Z,1.59
2023-03-15T01:10:37.150Z,1.50
2023-03-15T01:15:39.898Z,1.45
2023-03-15T01:20:44.825Z,1.23
2023-03-15T01:25:49.418Z,1.22
2023-03-15T01:30:52.495Z,1.10
2023-03-15T01:36:00.641Z,0.84
2023-03-15T01:41:05.506Z,0.70
2023-03-15T01:46:16.649Z,0.80
2023-03-15T01:51:24.104Z,0.66
2023-03-15T01:56:29.272Z,0.85
2023-03-15T02:01:33.666Z,0.76
2023-03-15T02:06:36.765Z,0.78
2023-03-15T02:11:41.002Z,0.70
2023-03-15T02:16:45.184Z,0.53
2023-03-15T02:21:56.681Z,0.55
2023-03-15T02:27:01.330Z,0.70
2023-03-15T02:32:05.794Z,0.65
2023-03-15T02:37:08.562Z,0.82
2023-03-15T02:42:11.846Z,0.87
2023-03-15T02:47:18.804Z,0.75
2023-03-15T02:52:22.059Z,0.73
2023-03-15T02:57:24.988Z,0.77
2023-03-15T03:02:32.252Z,0.75
2023-03-15T03:07:35.059Z,0.78
2023-03-15T03:12:40.626Z,0.87
2023-03-15T03:17:44.812Z,0.87
2023-03-15T03:22:47.682Z,0.92
2023-03-15T03:27:56.924Z,1.04
2023-03-15T03:33:02.504Z,1.03
2023-03-15T03:38:06.008Z,0.99
2023-03-15T03:43:13.241Z,1.12
2023-03-15T03:48:17.448Z,1.01
2023-03-15T03:53:20.497Z,1.06
2023-03-15T03:58:23.909Z,1.07
2023-03-15T04:03:33.905Z,0.99
2023-03-15T04:08:52.544Z,1.03
2023-03-15T04:14:01.804Z,1.05
2023-03-15T04:19:05.925Z,1.04
2023-03-15T04:24:11.074Z,1.08
2023-03-15T04:29:27.695Z,1.12
2023-03-15T04:34:56.449Z,1.14
2023-03-15T04:40:18.184Z,1.19
2023-03-15T04:45:31.656Z,1.28
2023-03-15T04:51:07.030Z,1.24
2023-03-15T04:56:46.200Z,1.24
2023-03-15T05:02:21.300Z,1.24
2023-03-15T05:07:51.865Z,1.31
2023-03-15T05:13:09.666Z,1.35
2023-03-15T05:18:22.932Z,1.40
2023-03-15T05:24:01.099Z,1.34
2023-03-15T05:29:14.055Z,1.39
2023-03-15T05:34:32.264Z,1.36
2023-03-15T05:39:48.720Z,1.36
2023-03-15T05:45:13.468Z,1.35
2023-03-15T05:50:48.590Z,1.41
2023-03-15T05:56:02.358Z,1.37
2023-03-15T06:01:06.637Z,1.35
2023-03-15T06:06:29.945Z,1.35
2023-03-15T06:11:34.143Z,1.39
2023-03-15T06:16:39.225Z,1.40
2023-03-15T06:21:43.149Z,1.41
2023-03-15T06:26:54.642Z,1.50
2023-03-15T06:31:59.240Z,1.60
2023-03-15T06:37:04.777Z,1.51
2023-03-15T06:42:08.296Z,1.54
2023-03-15T06:47:16.314Z,1.57
2023-03-15T06:52:19.612Z,1.43
2023-03-15T06:57:22.417Z,1.55
2023-03-15T07:02:26.896Z,1.58
2023-03-15T07:07:29.714Z,1.61
2023-03-15T07:12:32.455Z,1.63
2023-03-15T07:17:36.570Z,1.73
2023-03-15T07:22:39.638Z,1.59
2023-03-15T07:27:42.416Z,1.51
2023-03-15T07:32:46.708Z,1.64
2023-03-15T07:37:49.548Z,1.62
2023-03-15T07:42:52.303Z,1.80
2023-03-15T07:47:56.722Z,1.85
2023-03-15T07:52:59.614Z,2.68
2023-03-15T07:58:03.276Z,1.70
2023-03-15T08:03:07.455Z,1.98
2023-03-15T08:08:10.350Z,2.29
2023-03-15T08:13:13.240Z,2.16
2023-03-15T08:18:17.362Z,2.97
2023-03-15T08:23:20.100Z,2.70
2023-03-15T08:28:22.850Z,2.47
2023-03-15T08:33:30.116Z,2.73
2023-03-15T08:38:33.009Z,2.43
2023-03-15T08:43:35.804Z,2.80
2023-03-15T08:48:39.944Z,3.12
2023-03-15T08:53:42.731Z,3.22
2023-03-15T08:58:45.596Z,2.92
2023-03-15T09:03:50.687Z,3.62
2023-03-15T09:08:54.784Z,3.46
2023-03-15T09:13:57.533Z,3.46
2023-03-15T09:19:01.638Z,3.37
2023-03-15T09:24:04.635Z,3.76
2023-03-15T09:29:08.714Z,3.59
2023-03-15T09:34:13.016Z,3.84
2023-03-15T09:39:15.742Z,3.52
2023-03-15T09:44:30.022Z,4.20
2023-03-15T09:49:42.117Z,3.75
2023-03-15T09:54:47.495Z,3.59
2023-03-15T09:59:53.801Z,4.05
2023-03-15T10:05:02.205Z,4.19
2023-03-15T10:10:09.955Z,4.10
2023-03-15T10:15:23.607Z,3.82
2023-03-15T10:20:30.727Z,4.53
2023-03-15T10:25:34.370Z,4.92
2023-03-15T10:30:39.863Z,4.83
2023-03-15T10:35:43.984Z,4.07
2023-03-15T10:40:48.336Z,4.67
2023-03-15T10:46:02.660Z,5.11
2023-03-15T10:51:14.781Z,4.56
2023-03-15T10:56:23.702Z,5.29
2023-03-15T11:01:28.936Z,5.24
2023-03-15T11:06:41.140Z,5.54
2023-03-15T11:11:52.350Z,6.02
2023-03-15T11:16:57.027Z,5.00
2023-03-15T11:22:02.526Z,6.17
2023-03-15T11:27:11.991Z,6.13
2023-03-15T11:32:18.144Z,5.59
2023-03-15T11:37:22.715Z,6.52
2023-03-15T11:42:30.849Z,6.40
2023-03-15T11:47:42.332Z,6.97
2023-03-15T11:52:49.328Z,6.88
2023-03-15T11:57:53.329Z,7.16
2023-03-15T12:02:57.902Z,6.56
2023-03-15T12:08:18.925Z,6.93
2023-03-15T12:13:25.107Z,6.93
2023-03-15T12:18:29.130Z,5.83
2023-03-15T12:23:58.067Z,6.23
2023-03-15T12:29:07.581Z,5.81
2023-03-15T12:34:15.286Z,6.02
2023-03-15T12:39:37.656Z,6.71
2023-03-15T12:44:42.918Z,6.26
2023-03-15T12:49:46.972Z,6.63
2023-03-15T12:54:53.424Z,6.08
2023-03-15T12:59:58.047Z,6.38
2023-03-15T13:05:03.599Z,6.31
2023-03-15T13:10:29.243Z,6.72
2023-03-15T13:15:40.578Z,7.07
2023-03-15T13:20:49.376Z,7.56
2023-03-15T13:26:03.676Z,7.83
2023-03-15T13:31:14.385Z,7.79
2023-03-15T13:36:19.400Z,7.51
2023-03-15T13:41:25.277Z,7.29
2023-03-15T13:46:30.453Z,7.92
2023-03-15T13:51:34.698Z,7.38
2023-03-15T13:56:49.268Z,7.58
2023-03-15T14:01:54.240Z,8.09
2023-03-15T14:07:09.008Z,7.55
2023-03-15T14:12:19.823Z,7.82
2023-03-15T14:17:27.744Z,7.85
2023-03-15T14:22:31.097Z,7.47
2023-03-15T14:27:35.248Z,6.96
2023-03-15T14:32:39.427Z,7.03
2023-03-15T14:37:43.877Z,6.85
2023-03-15T14:42:48.930Z,7.12
2023-03-15T14:47:57.818Z,6.95
2023-03-15T14:53:00.816Z,7.12
2023-03-15T14:58:07.383Z,6.93
2023-03-15T15:03:18.366Z,7.12
2023-03-15T15:08:23.196Z,7.11
2023-03-15T15:13:29.089Z,7.29
2023-03-15T15:18:33.638Z,7.31
2023-03-15T15:23:47.468Z,7.19
2023-03-15T15:28:59.667Z,7.13
2023-03-15T15:34:02.900Z,7.29
2023-03-15T15:39:14.529Z,7.50
2023-03-15T15:44:20.544Z,7.39
2023-03-15T15:49:23.397Z,7.44
2023-03-15T15:54:27.577Z,7.42
2023-03-15T15:59:31.894Z,7.15
2023-03-15T16:04:34.747Z,7.10
2023-03-15T16:09:40.045Z,7.46
2023-03-15T16:14:44.520Z,6.93
2023-03-15T16:19:47.259Z,6.95
2023-03-15T16:24:53.007Z,7.03
2023-03-15T16:29:57.254Z,6.97
2023-03-15T16:35:01.304Z,6.80
2023-03-15T16:40:09.878Z,6.75
2023-03-15T16:45:15.409Z,6.61
2023-03-15T16:50:19.035Z,6.52
2023-03-15T16:55:25.011Z,6.42
2023-03-15T17:00:30.826Z,6.40
2023-03-15T17:05:34.057Z,6.30
2023-03-15T17:10:36.850Z,6.03
2023-03-15T17:15:40.992Z,5.88
2023-03-15T17:20:43.820Z,5.79
2023-03-15T17:25:46.550Z,5.72
2023-03-15T17:30:55.197Z,5.57
2023-03-15T17:36:04.596Z,5.52
2023-03-15T17:41:10.614Z,5.52
2023-03-15T17:46:14.752Z,5.42
2023-03-15T17:51:20.747Z,5.26
2023-03-15T17:56:23.766Z,5.17
2023-03-15T18:01:28.577Z,4.98
2023-03-15T18:06:31.292Z,4.86
2023-03-15T18:11:35.798Z,4.84
2023-03-15T18:16:40.080Z,4.69
2023-03-15T18:21:42.837Z,4.60
2023-03-15T18:26:45.543Z,4.41
2023-03-15T18:31:50.098Z,4.27
2023-03-15T18:36:52.855Z,4.26
2023-03-15T18:41:55.532Z,4.28
2023-03-15T18:46:59.536Z,4.28
2023-03-15T18:52:02.263Z,4.19
2023-03-15T18:57:06.145Z,3.97
2023-03-15T19:02:11.386Z,3.87
2023-03-15T19:07:14.113Z,3.69
2023-03-15T19:12:16.855Z,3.56
2023-03-15T19:17:20.951Z,3.55
2023-03-15T19:22:23.698Z,3.29
2023-03-15T19:27:26.895Z,3.34
2023-03-15T19:32:31.077Z,3.25
2023-03-15T19:37:34.164Z,3.18
2023-03-15T19:42:36.983Z,3.29
2023-03-15T19:47:41.410Z,3.09
2023-03-15T19:52:46.880Z,3.20
2023-03-15T19:57:49.678Z,3.06
2023-03-15T20:02:55.375Z,2.90
2023-03-15T20:07:58.106Z,2.82
2023-03-15T20:13:00.814Z,2.77
2023-03-15T20:18:08.056Z,2.61
2023-03-15T20:23:10.814Z,2.55
2023-03-15T20:28:13.599Z,2.42
2023-03-15T20:33:17.769Z,2.30
2023-03-15T20:38:22.713Z,2.33
2023-03-15T20:43:25.823Z,2.23
2023-03-15T20:48:31.407Z,2.33
2023-03-15T20:53:36.172Z,2.29
2023-03-15T20:58:38.939Z,2.28
2023-03-15T21:03:43.425Z,2.36
2023-03-15T21:08:46.177Z,2.28
2023-03-15T21:13:48.960Z,2.20
2023-03-15T21:18:54.662Z,2.25
2023-03-15T21:23:57.386Z,2.22
2023-03-15T21:29:00.132Z,2.09
2023-03-15T21:34:05.029Z,2.15
2023-03-15T21:39:08.015Z,2.06
2023-03-15T21:44:11.431Z,1.95
2023-03-15T21:49:15.781Z,1.88
2023-03-15T21:54:18.796Z,1.94
2023-03-15T21:59:28.073Z,1.86
2023-03-15T22:04:33.898Z,1.72
2023-03-15T22:09:37.959Z,1.83
2023-03-15T22:14:41.248Z,1.72
2023-03-15T22:19:45.323Z,1.80
2023-03-15T22:24:49.374Z,1.89
2023-03-15T22:29:52.258Z,1.78
2023-03-15T22:34:56.337Z,1.68
2023-03-15T22:39:59.064Z,1.67
2023-03-15T22:45:01.801Z,1.56
2023-03-15T22:50:06.574Z,1.61
2023-03-15T22:55:10.467Z,1.69
2023-03-15T23:00:16.261Z,1.70
2023-03-15T23:05:21.207Z,1.55
2023-03-15T23:10:24.173Z,1.57
2023-03-15T23:15:27.608Z,1.57
2023-03-15T23:20:32.119Z,1.65
2023-03-15T23:25:38.891Z,1.54
2023-03-15T23:30:45.523Z,1.61
2023-03-15T23:35:54.698Z,1.52
2023-03-15T23:40:58.491Z,1.52
2023-03-15T23:46:03.603Z,1.52
2023-03-15T23:51:07.703Z,1.53
2023-03-15T23:56:10.842Z,1.43
